WADD/DPS METAR and TAF weather

Enter ICAO airport designator
Station Type Date Time Source
WADD METAR 2022/11/30 16:30 UTC NOAA

WADD 301630Z 23003KT 9999 FEW016 27/24 Q1008 NOSIG


Station Type Date Time Source
WADD Decoded METAR 2022/11/30 16:30 UTC NOAA

Station name not available
Nov 30, 2022 - 11:30 AM EST / 2022.11.30 1630 UTC
Wind: from the SW (230 degrees) at 3 MPH (3 KT):0
Visibility: greater than 7 mile(s):0
Sky conditions: mostly clear
Temperature: 80 F (27 C)
Dew Point: 75 F (24 C)
Relative Humidity: 83%
Pressure (altimeter): 29.77 in. Hg (1008 hPa)
ob: WADD 301630Z 23003KT 9999 FEW016 27/24 Q1008 NOSIG
cycle: 16

Station Type Date Time Source
WADD TAF 2022/11/30 12:09 UTC NOAA

TAF WADD 301100Z 3012/0112 25010KT 9999 SCT016

Example: see airport list